createdAt,value
2016-11-17T00:00:20.187Z,0
2016-11-17T00:01:33.119Z,0
2016-11-17T00:02:46.705Z,0
2016-11-17T00:03:59.662Z,0
2016-11-17T00:05:13.093Z,0
2016-11-17T00:06:24.991Z,0
2016-11-17T00:07:37.453Z,0
2016-11-17T00:08:50.985Z,0
2016-11-17T00:10:04.007Z,0
2016-11-17T00:11:17.572Z,0
2016-11-17T00:12:30.614Z,0
2016-11-17T00:13:44.298Z,0
2016-11-17T00:14:57.895Z,0
2016-11-17T00:16:10.330Z,0
2016-11-17T00:17:22.821Z,0
2016-11-17T00:18:35.999Z,0
2016-11-17T00:19:48.478Z,0
2016-11-17T00:21:33.116Z,0
2016-11-17T00:22:46.174Z,0
2016-11-17T00:23:58.885Z,0
2016-11-17T00:25:11.822Z,0
2016-11-17T00:26:24.951Z,0
2016-11-17T00:27:38.570Z,0
2016-11-17T00:28:51.715Z,0
2016-11-17T00:30:04.844Z,0
2016-11-17T00:31:17.377Z,0
2016-11-17T00:32:30.365Z,0
2016-11-17T00:33:43.425Z,0
2016-11-17T00:34:55.139Z,0
2016-11-17T00:36:07.054Z,0
2016-11-17T00:37:20.537Z,0
2016-11-17T00:38:34.057Z,0
2016-11-17T00:39:47.027Z,0
2016-11-17T00:41:00.006Z,0
2016-11-17T00:42:13.670Z,0
2016-11-17T00:43:26.815Z,0
2016-11-17T00:44:39.908Z,0
2016-11-17T00:45:52.654Z,0
2016-11-17T00:47:05.800Z,0
2016-11-17T00:48:18.867Z,0
2016-11-17T00:49:31.454Z,0
2016-11-17T00:50:44.630Z,0
2016-11-17T00:51:57.660Z,0
2016-11-17T00:53:10.702Z,0
2016-11-17T00:54:24.285Z,0
2016-11-17T00:55:37.325Z,0
2016-11-17T00:56:50.096Z,0
2016-11-17T00:58:03.064Z,0
2016-11-17T00:59:15.642Z,0
2016-11-17T01:00:29.314Z,0
2016-11-17T01:01:41.776Z,0
2016-11-17T01:02:53.715Z,0
2016-11-17T01:05:50.781Z,0
2016-11-17T01:07:04.554Z,0
2016-11-17T01:08:17.646Z,0
2016-11-17T01:09:31.229Z,0
2016-11-17T01:10:44.309Z,0
2016-11-17T01:11:57.420Z,0
2016-11-17T01:13:11.035Z,0
2016-11-17T01:14:24.095Z,0
2016-11-17T01:15:37.122Z,0
2016-11-17T01:16:50.659Z,0
2016-11-17T01:18:03.339Z,0
2016-11-17T01:19:15.928Z,0
2016-11-17T01:20:29.460Z,0
2016-11-17T01:21:43.179Z,0
2016-11-17T01:22:56.229Z,0
2016-11-17T01:24:08.671Z,0
2016-11-17T01:25:21.184Z,0
2016-11-17T01:26:34.686Z,0
2016-11-17T01:27:47.141Z,0
2016-11-17T01:29:00.254Z,0
2016-11-17T01:30:13.296Z,0
2016-11-17T01:31:26.901Z,0
2016-11-17T01:32:39.978Z,0
2016-11-17T01:33:52.025Z,0
2016-11-17T01:35:04.456Z,0
2016-11-17T01:36:16.946Z,0
2016-11-17T01:37:29.410Z,0
2016-11-17T01:38:42.881Z,0
2016-11-17T01:39:56.543Z,0
2016-11-17T01:41:09.190Z,0
2016-11-17T01:42:53.362Z,0
2016-11-17T01:44:05.829Z,0
2016-11-17T01:45:18.891Z,0
2016-11-17T01:46:32.366Z,0
2016-11-17T01:47:45.342Z,0
2016-11-17T01:48:57.778Z,0
2016-11-17T01:50:09.717Z,0
2016-11-17T01:51:22.266Z,0
2016-11-17T01:52:34.852Z,0
2016-11-17T01:53:47.863Z,0
2016-11-17T01:55:01.379Z,0
2016-11-17T01:56:14.569Z,0
2016-11-17T01:57:27.606Z,0
2016-11-17T01:58:40.574Z,0
2016-11-17T01:59:54.071Z,0
2016-11-17T02:01:07.605Z,0
2016-11-17T02:02:20.638Z,0
2016-11-17T02:03:33.617Z,0
2016-11-17T02:04:46.655Z,0
2016-11-17T02:05:59.622Z,0
2016-11-17T02:07:11.682Z,0
2016-11-17T02:08:24.696Z,0
2016-11-17T02:09:38.196Z,0
2016-11-17T02:10:51.134Z,0
2016-11-17T02:12:04.241Z,0
2016-11-17T02:13:17.724Z,0
2016-11-17T02:14:30.727Z,0
2016-11-17T02:15:43.697Z,0
2016-11-17T02:16:56.643Z,0
2016-11-17T02:18:09.196Z,0
2016-11-17T02:19:22.701Z,0
2016-11-17T02:20:36.251Z,0
2016-11-17T02:21:48.674Z,0
2016-11-17T02:23:02.289Z,0
2016-11-17T02:24:14.763Z,0
2016-11-17T02:25:28.229Z,0
2016-11-17T02:26:41.296Z,0
2016-11-17T02:27:53.217Z,0
2016-11-17T02:29:05.720Z,0
2016-11-17T02:30:18.646Z,0
2016-11-17T02:31:32.162Z,0
2016-11-17T02:32:45.664Z,0
2016-11-17T02:34:30.352Z,0
2016-11-17T02:35:43.774Z,0
2016-11-17T02:36:56.777Z,0
2016-11-17T02:38:10.304Z,0
2016-11-17T02:39:22.191Z,0
2016-11-17T02:40:35.843Z,0
2016-11-17T02:41:47.813Z,0
2016-11-17T02:43:00.784Z,0
2016-11-17T02:44:13.265Z,0
2016-11-17T02:45:26.775Z,0
2016-11-17T02:46:38.223Z,0
2016-11-17T02:47:51.270Z,0
2016-11-17T02:49:03.721Z,0
2016-11-17T02:50:16.696Z,0
2016-11-17T02:51:29.227Z,0
2016-11-17T02:52:42.116Z,0
2016-11-17T02:53:55.715Z,0
2016-11-17T02:56:53.471Z,0
2016-11-17T02:58:07.001Z,0
2016-11-17T02:59:18.972Z,0
2016-11-17T03:00:32.481Z,0
2016-11-17T03:01:45.597Z,0
2016-11-17T03:02:58.078Z,0
2016-11-17T03:04:10.565Z,0
2016-11-17T03:05:24.090Z,0
2016-11-17T03:06:37.051Z,0
2016-11-17T03:07:49.620Z,0
2016-11-17T03:09:02.087Z,0
2016-11-17T03:10:14.580Z,0
2016-11-17T03:11:27.686Z,0
2016-11-17T03:12:41.272Z,0
2016-11-17T03:13:54.786Z,0
2016-11-17T03:15:07.745Z,0
2016-11-17T03:16:20.743Z,0
2016-11-17T03:17:33.237Z,0
2016-11-17T03:18:46.884Z,0
2016-11-17T03:19:59.916Z,0
2016-11-17T03:21:12.372Z,0
2016-11-17T03:22:24.826Z,0
2016-11-17T03:23:37.807Z,0
2016-11-17T03:24:51.293Z,0
2016-11-17T03:26:04.285Z,0
2016-11-17T03:27:17.221Z,0
2016-11-17T03:28:30.131Z,0
2016-11-17T03:29:43.730Z,0
2016-11-17T03:30:57.251Z,0
2016-11-17T03:32:10.769Z,0
2016-11-17T03:33:24.281Z,0
2016-11-17T03:34:36.736Z,0
2016-11-17T03:35:49.736Z,0
2016-11-17T03:37:02.122Z,0
2016-11-17T03:38:15.114Z,0
2016-11-17T03:39:27.590Z,0
2016-11-17T03:40:41.176Z,0
2016-11-17T03:41:54.212Z,0
2016-11-17T03:43:06.660Z,0
2016-11-17T03:44:19.696Z,0
2016-11-17T03:45:32.811Z,0
2016-11-17T03:46:45.760Z,0
2016-11-17T03:47:58.740Z,0
2016-11-17T03:49:11.235Z,0
2016-11-17T03:50:23.579Z,0
2016-11-17T03:51:36.676Z,0
2016-11-17T03:52:49.691Z,0
2016-11-17T03:54:03.209Z,0
2016-11-17T03:55:16.157Z,0
2016-11-17T03:56:29.607Z,0
2016-11-17T03:57:42.584Z,0
2016-11-17T03:58:55.553Z,0
2016-11-17T04:00:08.026Z,0
2016-11-17T04:01:21.024Z,0
2016-11-17T04:02:34.193Z,0
2016-11-17T04:03:46.687Z,0
2016-11-17T04:04:58.608Z,0
2016-11-17T04:06:11.582Z,0
2016-11-17T04:07:24.636Z,0
2016-11-17T04:08:38.116Z,0
2016-11-17T04:09:51.063Z,0
2016-11-17T04:11:04.015Z,0
2016-11-17T04:12:16.985Z,0
2016-11-17T04:13:30.580Z,0
2016-11-17T04:14:43.584Z,0
2016-11-17T04:15:56.575Z,0
2016-11-17T04:17:09.064Z,0
2016-11-17T04:18:21.552Z,0
2016-11-17T04:19:34.034Z,0
2016-11-17T04:20:47.552Z,0
2016-11-17T04:22:01.020Z,0
2016-11-17T04:23:14.040Z,0
2016-11-17T04:24:26.871Z,0
2016-11-17T04:25:39.784Z,0
2016-11-17T04:26:51.710Z,0
2016-11-17T04:28:35.297Z,0
2016-11-17T04:29:47.458Z,0
2016-11-17T04:30:59.346Z,0
2016-11-17T04:32:12.823Z,0
2016-11-17T04:33:25.814Z,0
2016-11-17T04:34:38.764Z,0
2016-11-17T04:35:51.696Z,0
2016-11-17T04:37:04.682Z,0
2016-11-17T04:38:17.211Z,0
2016-11-17T04:39:30.160Z,0
2016-11-17T04:40:42.771Z,0
2016-11-17T04:41:55.759Z,0
2016-11-17T04:43:08.745Z,0
2016-11-17T04:44:20.661Z,0
2016-11-17T04:45:33.688Z,0
2016-11-17T04:46:47.162Z,0
2016-11-17T04:48:00.134Z,0
2016-11-17T04:49:11.540Z,0
2016-11-17T04:50:24.546Z,0
2016-11-17T04:51:37.632Z,0
2016-11-17T04:52:51.191Z,0
2016-11-17T04:54:03.074Z,0
2016-11-17T04:55:16.128Z,0
2016-11-17T04:56:29.060Z,0
2016-11-17T04:57:42.538Z,0
2016-11-17T04:58:55.538Z,0
2016-11-17T05:00:08.996Z,0
2016-11-17T05:01:21.954Z,0
2016-11-17T05:02:35.018Z,0
2016-11-17T05:03:48.032Z,0
2016-11-17T05:05:01.502Z,0
2016-11-17T05:06:14.488Z,0
2016-11-17T05:07:27.564Z,0
2016-11-17T05:08:41.165Z,0
2016-11-17T05:09:53.649Z,0
2016-11-17T05:11:06.645Z,0
2016-11-17T05:12:20.137Z,0
2016-11-17T05:13:32.784Z,0
2016-11-17T05:14:45.268Z,0
2016-11-17T05:15:58.793Z,0
2016-11-17T05:17:12.400Z,0
2016-11-17T05:18:24.807Z,0
2016-11-17T05:19:38.343Z,0
2016-11-17T05:20:51.843Z,0
2016-11-17T05:22:36.544Z,0
2016-11-17T05:23:49.187Z,0
2016-11-17T05:26:46.711Z,0
2016-11-17T05:28:31.351Z,0
2016-11-17T05:29:43.965Z,0
2016-11-17T05:30:56.998Z,0
2016-11-17T05:32:10.489Z,0
2016-11-17T05:33:24.107Z,0
2016-11-17T05:34:36.727Z,0
2016-11-17T05:35:49.745Z,0
2016-11-17T05:37:02.713Z,0
2016-11-17T05:38:15.683Z,0
2016-11-17T05:39:28.752Z,0
2016-11-17T05:40:40.886Z,0
2016-11-17T05:41:53.864Z,0
2016-11-17T05:43:06.862Z,0
2016-11-17T05:44:19.832Z,0
2016-11-17T05:45:32.796Z,0
2016-11-17T05:46:45.777Z,0
2016-11-17T05:47:58.777Z,0
2016-11-17T05:49:11.349Z,0
2016-11-17T05:50:23.846Z,0
2016-11-17T05:51:34.757Z,0
2016-11-17T05:52:48.342Z,0
2016-11-17T05:54:01.902Z,0
2016-11-17T05:55:14.627Z,0
2016-11-17T05:56:27.590Z,0
2016-11-17T05:57:41.083Z,0
2016-11-17T05:58:54.631Z,0
2016-11-17T06:00:08.338Z,0
2016-11-17T06:01:21.818Z,0
2016-11-17T06:02:35.018Z,0
2016-11-17T06:03:47.532Z,0
2016-11-17T06:05:00.486Z,0
2016-11-17T06:06:12.964Z,0
2016-11-17T06:07:26.644Z,0
2016-11-17T06:08:38.555Z,0
2016-11-17T06:09:51.011Z,0
2016-11-17T06:11:03.476Z,0
2016-11-17T06:12:16.537Z,0
2016-11-17T06:13:29.622Z,0
2016-11-17T06:14:43.151Z,0
2016-11-17T06:15:56.101Z,0
2016-11-17T06:17:08.015Z,0
2016-11-17T06:18:21.639Z,0
2016-11-17T06:19:34.108Z,0
2016-11-17T06:20:47.625Z,0
2016-11-17T06:22:01.090Z,0
2016-11-17T06:23:13.519Z,0
2016-11-17T06:24:26.003Z,0
2016-11-17T06:25:38.973Z,0
2016-11-17T06:26:51.453Z,0
2016-11-17T06:28:04.393Z,0
2016-11-17T06:29:16.793Z,0
2016-11-17T06:30:29.847Z,0
2016-11-17T06:31:42.840Z,0
2016-11-17T06:32:55.246Z,0
2016-11-17T06:34:08.204Z,0
2016-11-17T06:35:20.826Z,0
2016-11-17T06:36:33.273Z,0
2016-11-17T06:37:44.637Z,0
2016-11-17T06:38:56.528Z,0
2016-11-17T06:40:08.977Z,0
2016-11-17T06:41:22.698Z,0
2016-11-17T06:42:35.704Z,0
2016-11-17T06:43:47.630Z,0
2016-11-17T06:45:00.570Z,0
2016-11-17T06:46:13.061Z,0
2016-11-17T06:47:25.484Z,0
2016-11-17T06:48:38.472Z,0
2016-11-17T06:49:51.977Z,0
2016-11-17T06:51:04.430Z,0
2016-11-17T06:52:16.641Z,0
2016-11-17T06:53:29.630Z,0
2016-11-17T06:54:42.817Z,0
2016-11-17T06:55:55.799Z,0
2016-11-17T06:57:08.266Z,0
2016-11-17T06:58:21.262Z,0
2016-11-17T06:59:33.814Z,0
2016-11-17T07:00:46.250Z,0
2016-11-17T07:01:59.762Z,0
2016-11-17T07:03:12.836Z,0
2016-11-17T07:04:56.975Z,0
2016-11-17T07:06:09.435Z,0
2016-11-17T07:07:22.385Z,0
2016-11-17T07:08:35.445Z,0
2016-11-17T07:09:48.394Z,0
2016-11-17T07:11:00.882Z,0
2016-11-17T07:12:13.877Z,0
2016-11-17T07:13:26.305Z,0
2016-11-17T07:14:39.213Z,0
2016-11-17T07:15:51.633Z,0
2016-11-17T07:17:03.651Z,0
2016-11-17T07:18:17.080Z,0
2016-11-17T07:19:30.273Z,0
2016-11-17T07:20:43.278Z,0
2016-11-17T07:21:56.312Z,0
2016-11-17T07:23:09.847Z,0
2016-11-17T07:24:22.979Z,0
2016-11-17T07:25:35.909Z,0
2016-11-17T07:26:48.907Z,0
2016-11-17T07:28:01.394Z,0
2016-11-17T07:29:14.949Z,0
2016-11-17T07:30:28.014Z,0
2016-11-17T07:31:39.951Z,0
2016-11-17T07:32:52.933Z,0
2016-11-17T07:34:05.951Z,0
2016-11-17T07:35:19.013Z,0
2016-11-17T07:36:31.996Z,0
2016-11-17T07:37:44.916Z,0
2016-11-17T07:38:58.457Z,0
2016-11-17T07:40:11.414Z,0
2016-11-17T07:41:24.430Z,0
2016-11-17T07:42:37.425Z,0
2016-11-17T07:43:50.469Z,0
2016-11-17T07:45:02.944Z,0
2016-11-17T07:46:15.884Z,0
2016-11-17T07:47:28.837Z,0
2016-11-17T07:48:41.761Z,0
2016-11-17T07:49:53.587Z,4
2016-11-17T07:51:07.147Z,0
2016-11-17T07:52:20.946Z,4
2016-11-17T07:53:33.907Z,8
2016-11-17T07:54:46.880Z,4
2016-11-17T07:55:59.837Z,12
2016-11-17T07:57:13.129Z,12
2016-11-17T07:58:25.537Z,20
2016-11-17T07:59:39.077Z,24
2016-11-17T08:00:52.575Z,28
2016-11-17T08:02:05.527Z,40
2016-11-17T08:03:18.584Z,48
2016-11-17T08:04:30.524Z,52
2016-11-17T08:05:43.531Z,60
2016-11-17T08:06:56.545Z,68
2016-11-17T08:08:10.077Z,88
2016-11-17T08:09:23.077Z,108
2016-11-17T08:12:20.270Z,156
2016-11-17T08:13:31.759Z,176
2016-11-17T08:14:43.697Z,196
2016-11-17T08:15:56.160Z,216
2016-11-17T08:17:08.543Z,244
2016-11-17T08:18:20.991Z,276
2016-11-17T08:19:34.465Z,308
2016-11-17T08:20:47.507Z,340
2016-11-17T08:22:00.521Z,376
2016-11-17T08:23:12.942Z,424
2016-11-17T08:24:25.538Z,468
2016-11-17T08:26:09.644Z,544
2016-11-17T08:27:23.113Z,628
2016-11-17T08:28:36.658Z,712
2016-11-17T08:29:50.283Z,764
2016-11-17T08:31:03.346Z,808
2016-11-17T08:32:15.775Z,836
2016-11-17T08:33:28.214Z,832
2016-11-17T08:34:41.158Z,776
2016-11-17T08:35:54.119Z,704
2016-11-17T08:37:07.081Z,728
2016-11-17T08:38:19.473Z,804
2016-11-17T08:39:32.478Z,888
2016-11-17T08:40:45.573Z,1000
2016-11-17T08:41:58.562Z,948
2016-11-17T08:43:11.998Z,1024
2016-11-17T08:44:24.395Z,1160
2016-11-17T08:45:37.357Z,1336
2016-11-17T08:46:50.267Z,1572
2016-11-17T08:48:03.271Z,1996
2016-11-17T08:49:15.251Z,2168
2016-11-17T08:50:27.655Z,1980
2016-11-17T08:51:41.426Z,1780
2016-11-17T08:54:39.638Z,2040
2016-11-17T08:55:53.132Z,2448
2016-11-17T08:57:06.860Z,2944
2016-11-17T08:58:19.864Z,3248
2016-11-17T08:59:33.414Z,3452
2016-11-17T09:01:18.033Z,3716
2016-11-17T09:02:31.137Z,3832
2016-11-17T09:03:43.705Z,3888
2016-11-17T09:04:57.219Z,3888
2016-11-17T09:06:10.269Z,3860
2016-11-17T09:07:22.871Z,4100
2016-11-17T09:08:35.611Z,4816
2016-11-17T09:10:20.517Z,5276
2016-11-17T09:11:33.080Z,5160
2016-11-17T09:12:45.322Z,4896
2016-11-17T09:13:57.336Z,4792
2016-11-17T09:15:10.818Z,4616
2016-11-17T09:16:23.484Z,4388
2016-11-17T09:17:35.502Z,4264
2016-11-17T09:18:49.095Z,4348
2016-11-17T09:21:45.153Z,4868
2016-11-17T09:22:58.328Z,4692
2016-11-17T09:24:10.237Z,4236
2016-11-17T09:25:23.789Z,3820
2016-11-17T09:26:36.242Z,3620
2016-11-17T09:27:49.833Z,3400
2016-11-17T09:29:02.276Z,3088
2016-11-17T09:30:15.876Z,3008
2016-11-17T09:31:28.975Z,3044
2016-11-17T09:32:41.413Z,3320
2016-11-17T09:33:55.237Z,3060
2016-11-17T09:35:08.363Z,3016
2016-11-17T09:36:21.413Z,3248
2016-11-17T09:37:34.777Z,2944
2016-11-17T09:38:47.754Z,3432
2016-11-17T09:39:59.717Z,4652
2016-11-17T09:41:11.217Z,4544
2016-11-17T09:42:23.707Z,5284
2016-11-17T09:43:36.168Z,5396
2016-11-17T09:44:48.295Z,5176
2016-11-17T09:46:01.203Z,5612
2016-11-17T09:47:13.842Z,4448
2016-11-17T09:48:26.991Z,3812
2016-11-17T09:49:39.398Z,3704
2016-11-17T09:50:52.046Z,6580
2016-11-17T09:52:04.524Z,7016
2016-11-17T09:53:16.997Z,7916
2016-11-17T09:54:30.454Z,8484
2016-11-17T09:55:43.210Z,8780
2016-11-17T09:56:57.053Z,9148
2016-11-17T09:58:10.089Z,9588
2016-11-17T09:59:22.525Z,9892
2016-11-17T10:00:35.835Z,10568
2016-11-17T10:01:48.337Z,11688
2016-11-17T10:03:00.595Z,12236
2016-11-17T10:04:13.178Z,12132
2016-11-17T10:05:26.190Z,12388
2016-11-17T10:06:39.191Z,12880
2016-11-17T10:07:51.610Z,13536
2016-11-17T10:09:04.602Z,14076
2016-11-17T10:10:18.186Z,14304
2016-11-17T10:11:31.767Z,13896
2016-11-17T10:12:43.640Z,14124
2016-11-17T10:13:56.089Z,14504
2016-11-17T10:15:09.708Z,13532
2016-11-17T10:16:22.777Z,14844
2016-11-17T10:17:36.551Z,14616
2016-11-17T10:18:50.090Z,14548
2016-11-17T10:20:03.700Z,13752
2016-11-17T10:21:17.635Z,13212
2016-11-17T10:22:30.410Z,12708
2016-11-17T10:23:42.822Z,12824
2016-11-17T10:24:55.783Z,12448
2016-11-17T10:26:08.328Z,12028
2016-11-17T10:27:21.048Z,11460
2016-11-17T10:28:32.968Z,10524
2016-11-17T10:29:46.084Z,9384
2016-11-17T10:30:58.557Z,8428
2016-11-17T10:32:11.533Z,7884
2016-11-17T10:33:23.981Z,7712
2016-11-17T10:34:36.539Z,7588
2016-11-17T10:35:50.030Z,7556
2016-11-17T10:37:01.718Z,7788
2016-11-17T10:38:14.585Z,8368
2016-11-17T10:39:28.440Z,9340
2016-11-17T10:40:42.231Z,10660
2016-11-17T10:41:55.784Z,12216
2016-11-17T10:43:08.245Z,13128
2016-11-17T10:44:22.684Z,14232
2016-11-17T10:45:36.317Z,14952
2016-11-17T10:46:49.348Z,15996
2016-11-17T10:48:00.221Z,18048
2016-11-17T10:49:13.333Z,15892
2016-11-17T10:50:26.912Z,16020
2016-11-17T10:51:39.636Z,16176
2016-11-17T10:52:53.126Z,15800
2016-11-17T10:54:06.141Z,15568
2016-11-17T10:55:18.609Z,15780
2016-11-17T10:56:32.419Z,15956
2016-11-17T10:57:45.936Z,15832
2016-11-17T10:58:59.465Z,15200
2016-11-17T11:00:11.665Z,14532
2016-11-17T11:01:24.721Z,14436
2016-11-17T11:02:38.341Z,15228
2016-11-17T11:03:51.878Z,16448
2016-11-17T11:05:03.793Z,18240
2016-11-17T11:06:16.830Z,17888
2016-11-17T11:07:30.356Z,17088
2016-11-17T11:08:43.978Z,16108
2016-11-17T11:09:57.031Z,15808
2016-11-17T11:11:09.982Z,15900
2016-11-17T11:12:22.519Z,16604
2016-11-17T11:13:36.118Z,18912
2016-11-17T11:14:49.310Z,15984
2016-11-17T11:16:02.880Z,15716
2016-11-17T11:17:15.490Z,16124
2016-11-17T11:18:28.522Z,17632
2016-11-17T11:19:40.957Z,18496
2016-11-17T11:20:56.038Z,19264
2016-11-17T11:22:09.431Z,20000
2016-11-17T11:23:22.444Z,19936
2016-11-17T11:24:34.354Z,19584
2016-11-17T11:25:47.902Z,19136
2016-11-17T11:27:00.860Z,18816
2016-11-17T11:28:14.076Z,18176
2016-11-17T11:29:26.551Z,17568
2016-11-17T11:30:39.625Z,16700
2016-11-17T11:31:53.431Z,16108
2016-11-17T11:33:07.186Z,15484
2016-11-17T11:34:19.095Z,15200
2016-11-17T11:37:15.786Z,14716
2016-11-17T11:38:28.350Z,14568
2016-11-17T11:39:40.974Z,14492
2016-11-17T11:40:54.548Z,14624
2016-11-17T11:42:07.684Z,14996
2016-11-17T11:43:21.249Z,15736
2016-11-17T11:44:34.244Z,17344
2016-11-17T11:45:47.267Z,17440
2016-11-17T11:47:00.278Z,18624
2016-11-17T11:48:13.276Z,26848
2016-11-17T11:49:26.593Z,19776
2016-11-17T11:50:39.667Z,20736
2016-11-17T11:51:51.546Z,20992
2016-11-17T11:53:04.022Z,21600
2016-11-17T11:54:17.021Z,21152
2016-11-17T11:55:28.422Z,30272
2016-11-17T11:56:40.879Z,26880
2016-11-17T11:57:54.473Z,21440
2016-11-17T11:59:08.074Z,20096
2016-11-17T12:00:21.197Z,19744
2016-11-17T12:01:34.721Z,20192
2016-11-17T12:02:47.715Z,21152
2016-11-17T12:04:00.731Z,21920
2016-11-17T12:05:13.710Z,23168
2016-11-17T12:06:27.018Z,22592
2016-11-17T12:07:40.052Z,22656
2016-11-17T12:08:51.569Z,22976
2016-11-17T12:10:04.055Z,23776
2016-11-17T12:11:17.197Z,26016
2016-11-17T12:12:30.183Z,32096
2016-11-17T12:13:43.154Z,35584
2016-11-17T12:14:56.237Z,30272
2016-11-17T12:16:08.200Z,31680
2016-11-17T12:17:21.175Z,28224
2016-11-17T12:18:34.182Z,24736
2016-11-17T12:19:47.189Z,27264
2016-11-17T12:21:00.769Z,29280
2016-11-17T12:22:14.004Z,29152
2016-11-17T12:23:26.421Z,28256
2016-11-17T12:24:38.462Z,28640
2016-11-17T12:25:50.951Z,28736
2016-11-17T12:27:03.962Z,29600
2016-11-17T12:28:48.177Z,27168
2016-11-17T12:30:01.728Z,25056
2016-11-17T12:31:14.730Z,24256
2016-11-17T12:32:28.449Z,24832
2016-11-17T12:33:41.433Z,25344
2016-11-17T12:34:53.954Z,27232
2016-11-17T12:36:06.396Z,26272
2016-11-17T12:37:21.114Z,29088
2016-11-17T12:38:34.872Z,26752
2016-11-17T12:39:46.892Z,32480
2016-11-17T12:41:00.593Z,32128
2016-11-17T12:43:57.888Z,31328
2016-11-17T12:45:10.340Z,31680
2016-11-17T12:46:23.343Z,30752
2016-11-17T12:47:36.390Z,30880
2016-11-17T12:48:48.905Z,29312
2016-11-17T12:50:01.309Z,30976
2016-11-17T12:51:13.264Z,24000
2016-11-17T12:52:26.321Z,32096
2016-11-17T12:53:38.833Z,32576
2016-11-17T12:54:51.556Z,29760
2016-11-17T12:56:04.037Z,25472
2016-11-17T12:57:16.590Z,27744
2016-11-17T12:58:29.613Z,28128
2016-11-17T12:59:42.880Z,31712
2016-11-17T13:00:55.900Z,43584
2016-11-17T13:02:07.899Z,52896
2016-11-17T13:03:20.817Z,60352
2016-11-17T13:04:34.373Z,42080
2016-11-17T13:05:47.428Z,52672
2016-11-17T13:07:00.541Z,65920
2016-11-17T13:08:13.042Z,69120
2016-11-17T13:09:26.675Z,52192
2016-11-17T13:10:38.875Z,30912
2016-11-17T13:11:50.333Z,29088
2016-11-17T13:13:04.012Z,29440
2016-11-17T13:14:16.596Z,27488
2016-11-17T13:15:29.076Z,26496
2016-11-17T13:16:42.102Z,25376
2016-11-17T13:17:54.554Z,23904
2016-11-17T13:19:06.482Z,23360
2016-11-17T13:20:17.996Z,23584
2016-11-17T13:21:31.122Z,23104
2016-11-17T13:22:44.174Z,23616
2016-11-17T13:23:57.717Z,23136
2016-11-17T13:25:10.723Z,22688
2016-11-17T13:26:23.702Z,23872
2016-11-17T13:27:36.739Z,24416
2016-11-17T13:28:49.218Z,24512
2016-11-17T13:30:02.897Z,25056
2016-11-17T13:31:15.958Z,24608
2016-11-17T13:32:29.140Z,24768
2016-11-17T13:33:41.090Z,24864
2016-11-17T13:34:54.084Z,24992
2016-11-17T13:36:07.095Z,25472
2016-11-17T13:37:20.605Z,25120
2016-11-17T13:38:33.635Z,25344
2016-11-17T13:39:51.600Z,24544
2016-11-17T13:41:07.028Z,24192
2016-11-17T13:42:20.495Z,22752
2016-11-17T13:43:33.410Z,21440
2016-11-17T13:44:46.900Z,24608
2016-11-17T13:45:59.923Z,24640
2016-11-17T13:47:12.889Z,25344
2016-11-17T13:48:25.512Z,25376
2016-11-17T13:49:37.927Z,24576
2016-11-17T13:50:50.960Z,25728
2016-11-17T13:52:03.421Z,25088
2016-11-17T13:53:14.873Z,26336
2016-11-17T13:54:27.951Z,26528
2016-11-17T13:55:40.352Z,26432
2016-11-17T13:56:53.851Z,25824
2016-11-17T13:58:06.364Z,24736
2016-11-17T13:59:19.059Z,18496
2016-11-17T14:00:32.474Z,18336
2016-11-17T14:01:45.516Z,18592
2016-11-17T14:02:58.486Z,26016
2016-11-17T14:04:42.816Z,26400
2016-11-17T14:05:55.323Z,25472
2016-11-17T14:07:08.323Z,19808
2016-11-17T14:08:20.758Z,25888
2016-11-17T14:09:33.797Z,27968
2016-11-17T14:10:46.416Z,27072
2016-11-17T14:11:59.974Z,26400
2016-11-17T14:13:12.384Z,26272
2016-11-17T14:14:24.465Z,26048
2016-11-17T14:15:37.393Z,26944
2016-11-17T14:16:50.899Z,27552
2016-11-17T14:18:03.412Z,27104
2016-11-17T14:19:16.412Z,25280
2016-11-17T14:20:29.945Z,25728
2016-11-17T14:21:42.506Z,26400
2016-11-17T14:22:54.975Z,26272
2016-11-17T14:24:08.555Z,26016
2016-11-17T14:25:22.069Z,26336
2016-11-17T14:26:35.603Z,26944
2016-11-17T14:27:48.163Z,27552
2016-11-17T14:29:01.294Z,26784
2016-11-17T14:30:14.307Z,27584
2016-11-17T14:31:26.733Z,28288
2016-11-17T14:32:38.267Z,27712
2016-11-17T14:33:50.790Z,29824
2016-11-17T14:35:03.836Z,29632
2016-11-17T14:36:15.781Z,30432
2016-11-17T14:37:28.182Z,31328
2016-11-17T14:38:41.219Z,32128
2016-11-17T14:39:54.779Z,32896
2016-11-17T14:41:07.846Z,33536
2016-11-17T14:42:21.420Z,32576
2016-11-17T14:43:33.236Z,33344
2016-11-17T14:44:50.110Z,27264
2016-11-17T14:46:03.491Z,35680
2016-11-17T14:47:16.016Z,35552
2016-11-17T14:48:29.891Z,32256
2016-11-17T14:49:42.891Z,35552
2016-11-17T14:50:56.418Z,34656
2016-11-17T14:52:08.837Z,35136
2016-11-17T14:53:21.897Z,34816
2016-11-17T14:54:34.638Z,34976
2016-11-17T14:55:47.181Z,35808
2016-11-17T14:57:00.698Z,36096
2016-11-17T14:58:13.157Z,26208
2016-11-17T14:59:26.783Z,27712
2016-11-17T15:00:40.312Z,26240
2016-11-17T15:01:53.328Z,39488
2016-11-17T15:03:06.950Z,26656
2016-11-17T15:04:20.089Z,34560
2016-11-17T15:05:32.692Z,38496
2016-11-17T15:06:45.154Z,29664
2016-11-17T15:07:57.684Z,28320
2016-11-17T15:09:11.251Z,24416
2016-11-17T15:10:24.282Z,39136
2016-11-17T15:11:37.352Z,37184
2016-11-17T15:12:50.331Z,25312
2016-11-17T15:14:02.821Z,25856
2016-11-17T15:15:16.482Z,30912
2016-11-17T15:16:29.434Z,41216
2016-11-17T15:17:40.821Z,43200
2016-11-17T15:18:53.756Z,43520
2016-11-17T15:20:06.761Z,27904
2016-11-17T15:21:19.257Z,42752
2016-11-17T15:22:31.852Z,44800
2016-11-17T15:23:44.412Z,44960
2016-11-17T15:24:56.829Z,45280
2016-11-17T15:26:09.399Z,46688
2016-11-17T15:27:21.920Z,45856
2016-11-17T15:28:34.946Z,48896
2016-11-17T15:29:48.478Z,50048
2016-11-17T15:31:01.560Z,48096
2016-11-17T15:32:15.118Z,26400
2016-11-17T15:33:27.571Z,21088
2016-11-17T15:34:40.529Z,19328
2016-11-17T15:35:53.610Z,21024
2016-11-17T15:37:06.117Z,25792
2016-11-17T15:38:19.734Z,49024
2016-11-17T15:39:32.671Z,36544
2016-11-17T15:40:45.167Z,29152
2016-11-17T15:41:58.695Z,46688
2016-11-17T15:43:12.044Z,28224
2016-11-17T15:44:25.551Z,33632
2016-11-17T15:45:39.054Z,49504
2016-11-17T15:46:52.568Z,26624
2016-11-17T15:48:06.119Z,49536
2016-11-17T15:49:19.046Z,49216
2016-11-17T15:50:32.073Z,30272
2016-11-17T15:51:44.549Z,41888
2016-11-17T15:52:57.560Z,46432
2016-11-17T15:54:10.532Z,48544
2016-11-17T15:55:23.964Z,47456
2016-11-17T15:56:37.063Z,46592
2016-11-17T15:57:49.521Z,48320
2016-11-17T15:59:03.021Z,51296
2016-11-17T16:00:16.741Z,30912
2016-11-17T16:01:30.232Z,49696
2016-11-17T16:02:43.360Z,52288
2016-11-17T16:03:57.037Z,52448
2016-11-17T16:05:10.171Z,51968
2016-11-17T16:06:23.738Z,36224
2016-11-17T16:07:36.746Z,24768
2016-11-17T16:08:49.757Z,24896
2016-11-17T16:10:02.727Z,24192
2016-11-17T16:11:15.903Z,25024
2016-11-17T16:12:28.855Z,39424
2016-11-17T16:13:41.874Z,45344
2016-11-17T16:14:55.376Z,45952
2016-11-17T16:16:08.360Z,44608
2016-11-17T16:17:20.781Z,45120
2016-11-17T16:18:34.019Z,44608
2016-11-17T16:19:47.105Z,45344
2016-11-17T16:21:00.108Z,28672
2016-11-17T16:22:12.799Z,26848
2016-11-17T16:23:25.966Z,26624
2016-11-17T16:24:38.990Z,30368
2016-11-17T16:25:52.519Z,28480
2016-11-17T16:27:06.127Z,26400
2016-11-17T16:28:19.704Z,24480
2016-11-17T16:30:03.871Z,21984
2016-11-17T16:31:16.892Z,36896
2016-11-17T16:32:29.447Z,19200
2016-11-17T16:33:42.506Z,19392
2016-11-17T16:34:55.559Z,21088
2016-11-17T16:36:07.947Z,23488
2016-11-17T16:37:20.913Z,27072
2016-11-17T16:38:34.517Z,30592
2016-11-17T16:39:47.044Z,29664
2016-11-17T16:41:00.041Z,56704
2016-11-17T16:42:12.609Z,59104
2016-11-17T16:43:25.686Z,50176
2016-11-17T16:44:37.074Z,63360
2016-11-17T16:45:49.512Z,62848
2016-11-17T16:47:01.503Z,40384
2016-11-17T16:48:14.541Z,30528
2016-11-17T16:49:27.037Z,73952
2016-11-17T16:50:39.941Z,51776
2016-11-17T16:51:52.911Z,66464
2016-11-17T16:53:04.838Z,24928
2016-11-17T16:54:18.039Z,72736
2016-11-17T16:55:30.548Z,76192
2016-11-17T16:56:43.509Z,31648
2016-11-17T16:57:56.497Z,83328
2016-11-17T16:59:08.983Z,60896
2016-11-17T17:00:21.569Z,50976
2016-11-17T17:01:34.054Z,72960
2016-11-17T17:04:31.264Z,77632
2016-11-17T17:05:44.150Z,77280
2016-11-17T17:06:55.556Z,78496
2016-11-17T17:08:08.579Z,24160